sensor_id;sensor_type;location;lat;lon;timestamp;temperature;humidity
37456;DHT22;23316;50.718;7.328;2023-06-24T00:02:24;21.50;51.50
37456;DHT22;23316;50.718;7.328;2023-06-24T00:04:53;21.50;51.60
37456;DHT22;23316;50.718;7.328;2023-06-24T00:07:20;21.50;51.70
37456;DHT22;23316;50.718;7.328;2023-06-24T00:09:48;21.50;51.70
37456;DHT22;23316;50.718;7.328;2023-06-24T00:12:15;21.40;51.70
37456;DHT22;23316;50.718;7.328;2023-06-24T00:14:45;21.40;51.70
37456;DHT22;23316;50.718;7.328;2023-06-24T00:17:13;21.40;51.70
37456;DHT22;23316;50.718;7.328;2023-06-24T00:19:42;21.40;51.80
37456;DHT22;23316;50.718;7.328;2023-06-24T00:22:12;21.40;51.80
37456;DHT22;23316;50.718;7.328;2023-06-24T00:24:39;21.30;51.90
37456;DHT22;23316;50.718;7.328;2023-06-24T00:27:08;21.30;51.90
37456;DHT22;23316;50.718;7.328;2023-06-24T00:29:36;21.30;52.00
37456;DHT22;23316;50.718;7.328;2023-06-24T00:32:03;21.30;52.00
37456;DHT22;23316;50.718;7.328;2023-06-24T00:34:31;21.30;52.10
37456;DHT22;23316;50.718;7.328;2023-06-24T00:36:58;21.30;52.10
37456;DHT22;23316;50.718;7.328;2023-06-24T00:39:27;21.30;52.20
37456;DHT22;23316;50.718;7.328;2023-06-24T00:41:54;21.20;52.10
37456;DHT22;23316;50.718;7.328;2023-06-24T00:44:21;21.20;52.20
37456;DHT22;23316;50.718;7.328;2023-06-24T00:46:48;21.10;52.20
37456;DHT22;23316;50.718;7.328;2023-06-24T00:49:16;21.10;52.30
37456;DHT22;23316;50.718;7.328;2023-06-24T00:51:43;21.10;52.40
37456;DHT22;23316;50.718;7.328;2023-06-24T00:54:16;21.10;52.40
37456;DHT22;23316;50.718;7.328;2023-06-24T00:56:45;21.10;52.40
37456;DHT22;23316;50.718;7.328;2023-06-24T00:59:15;21.00;52.50
37456;DHT22;23316;50.718;7.328;2023-06-24T01:01:43;21.10;52.60
37456;DHT22;23316;50.718;7.328;2023-06-24T01:04:11;21.00;52.60
37456;DHT22;23316;50.718;7.328;2023-06-24T01:06:39;21.00;52.60
37456;DHT22;23316;50.718;7.328;2023-06-24T01:09:09;20.90;52.60
37456;DHT22;23316;50.718;7.328;2023-06-24T01:11:37;20.90;52.60
37456;DHT22;23316;50.718;7.328;2023-06-24T01:14:06;20.90;52.70
37456;DHT22;23316;50.718;7.328;2023-06-24T01:16:38;20.90;52.80
37456;DHT22;23316;50.718;7.328;2023-06-24T01:19:23;20.90;52.90
37456;DHT22;23316;50.718;7.328;2023-06-24T01:22:05;20.80;52.90
37456;DHT22;23316;50.718;7.328;2023-06-24T01:24:51;20.80;52.90
37456;DHT22;23316;50.718;7.328;2023-06-24T01:27:32;20.80;53.00
37456;DHT22;23316;50.718;7.328;2023-06-24T01:30:31;20.80;53.10
37456;DHT22;23316;50.718;7.328;2023-06-24T01:33:07;20.70;53.10
37456;DHT22;23316;50.718;7.328;2023-06-24T01:35:36;20.70;53.10
37456;DHT22;23316;50.718;7.328;2023-06-24T01:38:09;20.70;53.10
37456;DHT22;23316;50.718;7.328;2023-06-24T01:40:39;20.70;53.20
37456;DHT22;23316;50.718;7.328;2023-06-24T01:43:09;20.70;53.20
37456;DHT22;23316;50.718;7.328;2023-06-24T01:45:40;20.60;53.20
37456;DHT22;23316;50.718;7.328;2023-06-24T01:48:13;20.60;53.30
37456;DHT22;23316;50.718;7.328;2023-06-24T01:50:44;20.60;53.90
37456;DHT22;23316;50.718;7.328;2023-06-24T01:53:13;20.60;53.50
37456;DHT22;23316;50.718;7.328;2023-06-24T01:55:41;20.60;53.50
37456;DHT22;23316;50.718;7.328;2023-06-24T01:58:11;20.60;53.50
37456;DHT22;23316;50.718;7.328;2023-06-24T02:00:39;20.50;53.50
37456;DHT22;23316;50.718;7.328;2023-06-24T02:03:08;20.50;53.60
37456;DHT22;23316;50.718;7.328;2023-06-24T02:05:37;20.50;53.60
37456;DHT22;23316;50.718;7.328;2023-06-24T02:08:08;20.50;53.70
37456;DHT22;23316;50.718;7.328;2023-06-24T02:10:37;20.50;53.80
37456;DHT22;23316;50.718;7.328;2023-06-24T02:13:05;20.40;53.80
37456;DHT22;23316;50.718;7.328;2023-06-24T02:15:35;20.40;53.80
37456;DHT22;23316;50.718;7.328;2023-06-24T02:18:05;20.40;53.90
37456;DHT22;23316;50.718;7.328;2023-06-24T02:20:37;20.40;53.90
37456;DHT22;23316;50.718;7.328;2023-06-24T02:23:07;20.40;53.90
37456;DHT22;23316;50.718;7.328;2023-06-24T02:25:36;20.30;53.90
37456;DHT22;23316;50.718;7.328;2023-06-24T02:28:06;20.30;54.00
37456;DHT22;23316;50.718;7.328;2023-06-24T02:30:35;20.30;54.10
37456;DHT22;23316;50.718;7.328;2023-06-24T02:33:02;20.30;54.10
37456;DHT22;23316;50.718;7.328;2023-06-24T02:35:30;20.30;54.20
37456;DHT22;23316;50.718;7.328;2023-06-24T02:37:58;20.30;54.20
37456;DHT22;23316;50.718;7.328;2023-06-24T02:40:26;20.20;54.30
37456;DHT22;23316;50.718;7.328;2023-06-24T02:42:53;20.20;54.30
37456;DHT22;23316;50.718;7.328;2023-06-24T02:45:21;20.20;54.30
37456;DHT22;23316;50.718;7.328;2023-06-24T02:47:52;20.20;54.40
37456;DHT22;23316;50.718;7.328;2023-06-24T02:50:21;20.20;54.40
37456;DHT22;23316;50.718;7.328;2023-06-24T02:52:50;20.10;54.40
37456;DHT22;23316;50.718;7.328;2023-06-24T02:55:20;20.10;54.40
37456;DHT22;23316;50.718;7.328;2023-06-24T02:57:48;20.10;54.50
37456;DHT22;23316;50.718;7.328;2023-06-24T03:00:17;20.10;54.50
37456;DHT22;23316;50.718;7.328;2023-06-24T03:02:45;20.10;54.60
37456;DHT22;23316;50.718;7.328;2023-06-24T03:05:16;20.00;54.60
37456;DHT22;23316;50.718;7.328;2023-06-24T03:07:45;20.00;54.70
37456;DHT22;23316;50.718;7.328;2023-06-24T03:10:12;20.00;54.70
37456;DHT22;23316;50.718;7.328;2023-06-24T03:12:42;20.00;54.70
37456;DHT22;23316;50.718;7.328;2023-06-24T03:15:10;20.00;54.80
37456;DHT22;23316;50.718;7.328;2023-06-24T03:17:37;20.00;54.80
37456;DHT22;23316;50.718;7.328;2023-06-24T03:20:05;20.00;54.80
37456;DHT22;23316;50.718;7.328;2023-06-24T03:22:34;19.90;54.80
37456;DHT22;23316;50.718;7.328;2023-06-24T03:25:01;19.90;54.90
37456;DHT22;23316;50.718;7.328;2023-06-24T03:27:28;19.90;54.90
37456;DHT22;23316;50.718;7.328;2023-06-24T03:29:58;19.90;55.00
37456;DHT22;23316;50.718;7.328;2023-06-24T03:32:25;19.90;55.00
37456;DHT22;23316;50.718;7.328;2023-06-24T03:34:52;19.90;55.10
37456;DHT22;23316;50.718;7.328;2023-06-24T03:37:20;19.80;55.00
37456;DHT22;23316;50.718;7.328;2023-06-24T03:39:47;19.80;55.20
37456;DHT22;23316;50.718;7.328;2023-06-24T03:42:14;19.80;55.20
37456;DHT22;23316;50.718;7.328;2023-06-24T03:44:42;19.80;55.30
37456;DHT22;23316;50.718;7.328;2023-06-24T03:47:10;19.80;55.30
37456;DHT22;23316;50.718;7.328;2023-06-24T03:49:37;19.80;55.40
37456;DHT22;23316;50.718;7.328;2023-06-24T03:52:05;19.80;55.50
37456;DHT22;23316;50.718;7.328;2023-06-24T03:54:34;19.80;55.50
37456;DHT22;23316;50.718;7.328;2023-06-24T03:57:02;19.80;55.50
37456;DHT22;23316;50.718;7.328;2023-06-24T03:59:29;19.80;55.60
37456;DHT22;23316;50.718;7.328;2023-06-24T04:01:56;19.80;55.60
37456;DHT22;23316;50.718;7.328;2023-06-24T04:04:25;19.80;55.60
37456;DHT22;23316;50.718;7.328;2023-06-24T04:06:52;19.70;55.70
37456;DHT22;23316;50.718;7.328;2023-06-24T04:09:20;19.80;55.80
37456;DHT22;23316;50.718;7.328;2023-06-24T04:11:48;19.80;55.80
37456;DHT22;23316;50.718;7.328;2023-06-24T04:14:15;19.80;55.90
37456;DHT22;23316;50.718;7.328;2023-06-24T04:16:42;19.70;55.90
37456;DHT22;23316;50.718;7.328;2023-06-24T04:19:10;19.70;55.90
37456;DHT22;23316;50.718;7.328;2023-06-24T04:21:38;19.80;55.90
37456;DHT22;23316;50.718;7.328;2023-06-24T04:24:06;19.70;55.90
37456;DHT22;23316;50.718;7.328;2023-06-24T04:26:33;19.80;56.00
37456;DHT22;23316;50.718;7.328;2023-06-24T04:29:00;19.70;55.90
37456;DHT22;23316;50.718;7.328;2023-06-24T04:31:28;19.80;56.00
37456;DHT22;23316;50.718;7.328;2023-06-24T04:33:56;19.70;56.00
37456;DHT22;23316;50.718;7.328;2023-06-24T04:36:23;19.80;56.10
37456;DHT22;23316;50.718;7.328;2023-06-24T04:38:52;19.80;56.10
37456;DHT22;23316;50.718;7.328;2023-06-24T04:41:20;19.80;56.20
37456;DHT22;23316;50.718;7.328;2023-06-24T04:43:47;19.70;56.10
37456;DHT22;23316;50.718;7.328;2023-06-24T04:46:15;19.80;56.20
37456;DHT22;23316;50.718;7.328;2023-06-24T04:48:42;19.70;56.20
37456;DHT22;23316;50.718;7.328;2023-06-24T04:51:10;19.70;56.20
37456;DHT22;23316;50.718;7.328;2023-06-24T04:53:38;19.80;56.30
37456;DHT22;23316;50.718;7.328;2023-06-24T04:56:07;19.80;56.50
37456;DHT22;23316;50.718;7.328;2023-06-24T04:58:34;19.80;56.40
37456;DHT22;23316;50.718;7.328;2023-06-24T05:01:02;19.80;56.50
37456;DHT22;23316;50.718;7.328;2023-06-24T05:03:30;19.80;56.60
37456;DHT22;23316;50.718;7.328;2023-06-24T05:05:57;19.80;56.60
37456;DHT22;23316;50.718;7.328;2023-06-24T05:08:25;19.80;56.70
37456;DHT22;23316;50.718;7.328;2023-06-24T05:10:53;19.80;56.80
37456;DHT22;23316;50.718;7.328;2023-06-24T05:13:22;19.90;56.90
37456;DHT22;23316;50.718;7.328;2023-06-24T05:15:50;19.90;57.00
37456;DHT22;23316;50.718;7.328;2023-06-24T05:18:18;19.90;57.00
37456;DHT22;23316;50.718;7.328;2023-06-24T05:20:45;19.90;57.00
37456;DHT22;23316;50.718;7.328;2023-06-24T05:23:13;20.00;57.10
37456;DHT22;23316;50.718;7.328;2023-06-24T05:25:41;20.00;57.10
37456;DHT22;23316;50.718;7.328;2023-06-24T05:28:08;20.00;57.20
37456;DHT22;23316;50.718;7.328;2023-06-24T05:30:37;20.00;57.30
37456;DHT22;23316;50.718;7.328;2023-06-24T05:33:05;20.00;57.30
37456;DHT22;23316;50.718;7.328;2023-06-24T05:35:33;20.00;57.30
37456;DHT22;23316;50.718;7.328;2023-06-24T05:38:00;20.10;57.50
37456;DHT22;23316;50.718;7.328;2023-06-24T05:40:28;20.10;57.50
37456;DHT22;23316;50.718;7.328;2023-06-24T05:42:55;20.10;57.60
37456;DHT22;23316;50.718;7.328;2023-06-24T05:45:23;20.20;57.70
37456;DHT22;23316;50.718;7.328;2023-06-24T05:47:52;20.20;57.70
37456;DHT22;23316;50.718;7.328;2023-06-24T05:50:19;20.30;57.90
37456;DHT22;23316;50.718;7.328;2023-06-24T05:52:47;20.30;57.90
37456;DHT22;23316;50.718;7.328;2023-06-24T05:55:15;20.30;57.90
37456;DHT22;23316;50.718;7.328;2023-06-24T05:57:42;20.40;57.90
37456;DHT22;23316;50.718;7.328;2023-06-24T06:00:11;20.40;57.90
37456;DHT22;23316;50.718;7.328;2023-06-24T06:02:39;20.40;57.90
37456;DHT22;23316;50.718;7.328;2023-06-24T06:05:08;20.50;58.00
37456;DHT22;23316;50.718;7.328;2023-06-24T06:07:35;20.50;58.10
37456;DHT22;23316;50.718;7.328;2023-06-24T06:10:05;20.60;58.10
37456;DHT22;23316;50.718;7.328;2023-06-24T06:12:32;20.60;58.20
37456;DHT22;23316;50.718;7.328;2023-06-24T06:14:59;20.60;58.20
37456;DHT22;23316;50.718;7.328;2023-06-24T06:17:27;20.70;58.30
37456;DHT22;23316;50.718;7.328;2023-06-24T06:19:54;20.80;58.30
37456;DHT22;23316;50.718;7.328;2023-06-24T06:22:22;20.80;58.30
37456;DHT22;23316;50.718;7.328;2023-06-24T06:24:50;20.90;58.70
37456;DHT22;23316;50.718;7.328;2023-06-24T06:27:17;20.90;58.80
37456;DHT22;23316;50.718;7.328;2023-06-24T06:29:44;21.00;58.90
37456;DHT22;23316;50.718;7.328;2023-06-24T06:32:11;21.00;58.80
37456;DHT22;23316;50.718;7.328;2023-06-24T06:34:38;21.00;58.80
37456;DHT22;23316;50.718;7.328;2023-06-24T06:37:06;21.10;58.80
37456;DHT22;23316;50.718;7.328;2023-06-24T06:39:34;21.20;58.90
37456;DHT22;23316;50.718;7.328;2023-06-24T06:42:02;21.30;58.90
37456;DHT22;23316;50.718;7.328;2023-06-24T06:44:29;21.30;58.80
37456;DHT22;23316;50.718;7.328;2023-06-24T06:46:56;21.30;58.80
37456;DHT22;23316;50.718;7.328;2023-06-24T06:49:23;21.40;59.00
37456;DHT22;23316;50.718;7.328;2023-06-24T06:51:53;21.50;59.10
37456;DHT22;23316;50.718;7.328;2023-06-24T06:54:20;21.50;59.20
37456;DHT22;23316;50.718;7.328;2023-06-24T06:56:49;21.60;59.10
37456;DHT22;23316;50.718;7.328;2023-06-24T06:59:16;21.70;59.10
37456;DHT22;23316;50.718;7.328;2023-06-24T07:01:43;21.80;59.00
37456;DHT22;23316;50.718;7.328;2023-06-24T07:04:11;21.80;58.90
37456;DHT22;23316;50.718;7.328;2023-06-24T07:06:38;21.90;58.80
37456;DHT22;23316;50.718;7.328;2023-06-24T07:09:05;22.00;58.70
37456;DHT22;23316;50.718;7.328;2023-06-24T07:11:33;22.00;58.70
37456;DHT22;23316;50.718;7.328;2023-06-24T07:14:03;22.10;58.40
37456;DHT22;23316;50.718;7.328;2023-06-24T07:16:30;22.10;57.80
37456;DHT22;23316;50.718;7.328;2023-06-24T07:18:57;22.20;57.70
37456;DHT22;23316;50.718;7.328;2023-06-24T07:21:25;22.30;57.40
37456;DHT22;23316;50.718;7.328;2023-06-24T07:23:52;22.40;57.20
37456;DHT22;23316;50.718;7.328;2023-06-24T07:26:20;22.40;56.50
37456;DHT22;23316;50.718;7.328;2023-06-24T07:28:48;22.50;56.40
37456;DHT22;23316;50.718;7.328;2023-06-24T07:31:16;22.50;56.60
37456;DHT22;23316;50.718;7.328;2023-06-24T07:33:43;22.60;56.60
37456;DHT22;23316;50.718;7.328;2023-06-24T07:36:11;22.70;56.40
37456;DHT22;23316;50.718;7.328;2023-06-24T07:38:39;22.70;56.10
37456;DHT22;23316;50.718;7.328;2023-06-24T07:41:06;22.80;55.80
37456;DHT22;23316;50.718;7.328;2023-06-24T07:43:33;22.90;55.70
37456;DHT22;23316;50.718;7.328;2023-06-24T07:46:02;22.90;55.70
37456;DHT22;23316;50.718;7.328;2023-06-24T07:48:30;23.00;55.40
37456;DHT22;23316;50.718;7.328;2023-06-24T07:50:58;23.10;55.40
37456;DHT22;23316;50.718;7.328;2023-06-24T07:53:25;23.10;55.80
37456;DHT22;23316;50.718;7.328;2023-06-24T07:55:52;23.10;55.50
37456;DHT22;23316;50.718;7.328;2023-06-24T07:58:19;23.20;55.50
37456;DHT22;23316;50.718;7.328;2023-06-24T08:00:47;23.30;55.10
37456;DHT22;23316;50.718;7.328;2023-06-24T08:03:14;23.40;54.90
37456;DHT22;23316;50.718;7.328;2023-06-24T08:05:43;23.40;55.00
37456;DHT22;23316;50.718;7.328;2023-06-24T08:08:10;23.50;55.10
37456;DHT22;23316;50.718;7.328;2023-06-24T08:10:38;23.50;55.00
37456;DHT22;23316;50.718;7.328;2023-06-24T08:13:05;23.60;55.20
37456;DHT22;23316;50.718;7.328;2023-06-24T08:15:32;23.60;55.10
37456;DHT22;23316;50.718;7.328;2023-06-24T08:17:59;23.70;54.40
37456;DHT22;23316;50.718;7.328;2023-06-24T08:20:27;23.70;54.40
37456;DHT22;23316;50.718;7.328;2023-06-24T08:22:56;23.80;54.30
37456;DHT22;23316;50.718;7.328;2023-06-24T08:25:24;23.90;54.00
37456;DHT22;23316;50.718;7.328;2023-06-24T08:27:51;23.90;53.80
37456;DHT22;23316;50.718;7.328;2023-06-24T08:30:19;24.00;53.40
37456;DHT22;23316;50.718;7.328;2023-06-24T08:32:46;24.00;53.40
37456;DHT22;23316;50.718;7.328;2023-06-24T08:35:15;24.10;53.10
37456;DHT22;23316;50.718;7.328;2023-06-24T08:37:42;24.10;52.70
37456;DHT22;23316;50.718;7.328;2023-06-24T08:40:12;24.10;52.70
37456;DHT22;23316;50.718;7.328;2023-06-24T08:42:40;24.20;52.10
37456;DHT22;23316;50.718;7.328;2023-06-24T08:45:08;24.20;52.20
37456;DHT22;23316;50.718;7.328;2023-06-24T08:47:36;24.30;52.10
37456;DHT22;23316;50.718;7.328;2023-06-24T08:50:07;24.30;52.60
37456;DHT22;23316;50.718;7.328;2023-06-24T08:52:36;24.40;51.70
37456;DHT22;23316;50.718;7.328;2023-06-24T08:55:07;24.40;51.70
37456;DHT22;23316;50.718;7.328;2023-06-24T08:57:39;24.50;52.00
37456;DHT22;23316;50.718;7.328;2023-06-24T09:00:07;24.50;51.80
37456;DHT22;23316;50.718;7.328;2023-06-24T09:02:36;24.60;52.40
37456;DHT22;23316;50.718;7.328;2023-06-24T09:05:04;24.70;51.90
37456;DHT22;23316;50.718;7.328;2023-06-24T09:07:32;24.70;52.00
37456;DHT22;23316;50.718;7.328;2023-06-24T09:09:59;24.80;51.80
37456;DHT22;23316;50.718;7.328;2023-06-24T09:12:27;24.90;51.90
37456;DHT22;23316;50.718;7.328;2023-06-24T09:14:56;25.00;51.70
37456;DHT22;23316;50.718;7.328;2023-06-24T09:17:23;25.00;52.10
37456;DHT22;23316;50.718;7.328;2023-06-24T09:19:51;25.10;51.60
37456;DHT22;23316;50.718;7.328;2023-06-24T09:22:18;25.20;51.70
37456;DHT22;23316;50.718;7.328;2023-06-24T09:24:47;25.20;50.60
37456;DHT22;23316;50.718;7.328;2023-06-24T09:27:16;25.30;50.80
37456;DHT22;23316;50.718;7.328;2023-06-24T09:29:45;25.40;51.00
37456;DHT22;23316;50.718;7.328;2023-06-24T09:32:14;25.40;50.50
37456;DHT22;23316;50.718;7.328;2023-06-24T09:34:43;25.50;50.10
37456;DHT22;23316;50.718;7.328;2023-06-24T09:37:10;25.50;49.60
37456;DHT22;23316;50.718;7.328;2023-06-24T09:39:40;25.60;50.00
37456;DHT22;23316;50.718;7.328;2023-06-24T09:42:08;25.60;50.10
37456;DHT22;23316;50.718;7.328;2023-06-24T09:44:37;25.60;49.30
37456;DHT22;23316;50.718;7.328;2023-06-24T09:47:04;25.60;49.70
37456;DHT22;23316;50.718;7.328;2023-06-24T09:49:33;25.60;50.00
37456;DHT22;23316;50.718;7.328;2023-06-24T09:52:01;25.70;49.50
37456;DHT22;23316;50.718;7.328;2023-06-24T09:54:30;25.70;49.10
37456;DHT22;23316;50.718;7.328;2023-06-24T09:57:01;25.70;49.50
37456;DHT22;23316;50.718;7.328;2023-06-24T09:59:30;25.80;49.80
37456;DHT22;23316;50.718;7.328;2023-06-24T10:02:00;25.80;49.90
37456;DHT22;23316;50.718;7.328;2023-06-24T10:04:27;25.90;49.60
37456;DHT22;23316;50.718;7.328;2023-06-24T10:06:56;25.90;49.20
37456;DHT22;23316;50.718;7.328;2023-06-24T10:09:25;26.00;49.20
37456;DHT22;23316;50.718;7.328;2023-06-24T10:11:52;26.00;49.10
37456;DHT22;23316;50.718;7.328;2023-06-24T10:14:19;26.00;48.60
37456;DHT22;23316;50.718;7.328;2023-06-24T10:16:46;26.00;48.50
37456;DHT22;23316;50.718;7.328;2023-06-24T10:19:19;26.10;48.00
37456;DHT22;23316;50.718;7.328;2023-06-24T10:21:49;26.10;48.30
37456;DHT22;23316;50.718;7.328;2023-06-24T10:24:33;26.10;48.80
37456;DHT22;23316;50.718;7.328;2023-06-24T10:27:02;26.10;48.30
37456;DHT22;23316;50.718;7.328;2023-06-24T10:29:34;26.10;48.20
37456;DHT22;23316;50.718;7.328;2023-06-24T10:32:03;26.20;46.80
37456;DHT22;23316;50.718;7.328;2023-06-24T10:34:41;26.20;46.80
37456;DHT22;23316;50.718;7.328;2023-06-24T10:37:11;26.20;46.60
37456;DHT22;23316;50.718;7.328;2023-06-24T10:39:48;26.30;46.70
37456;DHT22;23316;50.718;7.328;2023-06-24T10:42:37;26.30;46.80
37456;DHT22;23316;50.718;7.328;2023-06-24T10:45:15;26.40;46.70
37456;DHT22;23316;50.718;7.328;2023-06-24T10:47:44;26.40;46.90
37456;DHT22;23316;50.718;7.328;2023-06-24T10:50:13;26.50;46.90
37456;DHT22;23316;50.718;7.328;2023-06-24T10:52:42;26.50;47.10
37456;DHT22;23316;50.718;7.328;2023-06-24T10:55:13;26.60;46.60
37456;DHT22;23316;50.718;7.328;2023-06-24T10:57:41;26.60;46.40
37456;DHT22;23316;50.718;7.328;2023-06-24T11:00:10;26.70;46.40
37456;DHT22;23316;50.718;7.328;2023-06-24T11:02:37;26.70;46.50
37456;DHT22;23316;50.718;7.328;2023-06-24T11:05:05;26.70;46.70
37456;DHT22;23316;50.718;7.328;2023-06-24T11:07:33;26.70;46.50
37456;DHT22;23316;50.718;7.328;2023-06-24T11:10:03;26.70;46.30
37456;DHT22;23316;50.718;7.328;2023-06-24T11:12:33;26.80;46.20
37456;DHT22;23316;50.718;7.328;2023-06-24T11:15:02;26.80;46.20
37456;DHT22;23316;50.718;7.328;2023-06-24T11:17:30;26.80;45.30
37456;DHT22;23316;50.718;7.328;2023-06-24T11:19:58;26.80;45.60
37456;DHT22;23316;50.718;7.328;2023-06-24T11:22:26;26.80;45.00
37456;DHT22;23316;50.718;7.328;2023-06-24T11:24:54;26.80;44.70
37456;DHT22;23316;50.718;7.328;2023-06-24T11:27:26;26.80;44.70
37456;DHT22;23316;50.718;7.328;2023-06-24T11:29:56;26.80;44.70
37456;DHT22;23316;50.718;7.328;2023-06-24T11:32:24;26.80;44.90
37456;DHT22;23316;50.718;7.328;2023-06-24T11:34:51;26.80;44.60
37456;DHT22;23316;50.718;7.328;2023-06-24T11:37:19;26.80;44.30
37456;DHT22;23316;50.718;7.328;2023-06-24T11:40:00;26.90;44.40
37456;DHT22;23316;50.718;7.328;2023-06-24T11:42:29;26.90;44.50
37456;DHT22;23316;50.718;7.328;2023-06-24T11:45:01;26.90;44.90
37456;DHT22;23316;50.718;7.328;2023-06-24T11:47:31;26.90;45.00
37456;DHT22;23316;50.718;7.328;2023-06-24T11:50:00;27.00;45.60
37456;DHT22;23316;50.718;7.328;2023-06-24T11:52:41;27.10;45.60
37456;DHT22;23316;50.718;7.328;2023-06-24T11:55:15;27.10;45.50
37456;DHT22;23316;50.718;7.328;2023-06-24T11:57:54;27.20;45.40
37456;DHT22;23316;50.718;7.328;2023-06-24T12:00:24;27.20;46.20
37456;DHT22;23316;50.718;7.328;2023-06-24T12:02:55;27.30;45.90
37456;DHT22;23316;50.718;7.328;2023-06-24T12:05:23;27.30;45.10
37456;DHT22;23316;50.718;7.328;2023-06-24T12:07:54;27.40;45.30
37456;DHT22;23316;50.718;7.328;2023-06-24T12:10:22;27.40;45.00
37456;DHT22;23316;50.718;7.328;2023-06-24T12:12:49;27.50;44.70
37456;DHT22;23316;50.718;7.328;2023-06-24T12:15:17;27.50;44.70
37456;DHT22;23316;50.718;7.328;2023-06-24T12:17:45;27.60;44.50
37456;DHT22;23316;50.718;7.328;2023-06-24T12:20:13;27.70;43.70
37456;DHT22;23316;50.718;7.328;2023-06-24T12:22:41;27.80;43.40
37456;DHT22;23316;50.718;7.328;2023-06-24T12:25:09;27.90;43.00
37456;DHT22;23316;50.718;7.328;2023-06-24T12:27:37;27.90;43.10
37456;DHT22;23316;50.718;7.328;2023-06-24T12:30:07;28.00;42.30
37456;DHT22;23316;50.718;7.328;2023-06-24T12:32:34;28.00;42.20
37456;DHT22;23316;50.718;7.328;2023-06-24T12:35:03;28.10;41.90
37456;DHT22;23316;50.718;7.328;2023-06-24T12:37:31;28.20;41.60
37456;DHT22;23316;50.718;7.328;2023-06-24T12:39:59;28.20;42.10
37456;DHT22;23316;50.718;7.328;2023-06-24T12:42:26;28.30;41.50
37456;DHT22;23316;50.718;7.328;2023-06-24T12:44:54;28.30;41.40
37456;DHT22;23316;50.718;7.328;2023-06-24T12:47:21;28.30;41.30
37456;DHT22;23316;50.718;7.328;2023-06-24T12:49:49;28.30;41.70
37456;DHT22;23316;50.718;7.328;2023-06-24T12:52:18;28.30;40.10
37456;DHT22;23316;50.718;7.328;2023-06-24T12:54:45;28.30;40.90
37456;DHT22;23316;50.718;7.328;2023-06-24T12:57:12;28.40;42.00
37456;DHT22;23316;50.718;7.328;2023-06-24T12:59:39;28.40;41.70
37456;DHT22;23316;50.718;7.328;2023-06-24T13:02:07;28.40;41.70
37456;DHT22;23316;50.718;7.328;2023-06-24T13:04:34;28.50;40.60
37456;DHT22;23316;50.718;7.328;2023-06-24T13:07:01;28.60;40.80
37456;DHT22;23316;50.718;7.328;2023-06-24T13:09:30;28.60;40.60
37456;DHT22;23316;50.718;7.328;2023-06-24T13:11:58;28.60;40.60
37456;DHT22;23316;50.718;7.328;2023-06-24T13:14:26;28.60;41.20
37456;DHT22;23316;50.718;7.328;2023-06-24T13:16:54;28.60;41.10
37456;DHT22;23316;50.718;7.328;2023-06-24T13:19:21;28.60;41.70
37456;DHT22;23316;50.718;7.328;2023-06-24T13:21:49;28.60;41.60
37456;DHT22;23316;50.718;7.328;2023-06-24T13:24:16;28.70;41.60
37456;DHT22;23316;50.718;7.328;2023-06-24T13:26:44;28.70;41.70
37456;DHT22;23316;50.718;7.328;2023-06-24T13:29:12;28.70;41.60
37456;DHT22;23316;50.718;7.328;2023-06-24T13:31:39;28.70;41.70
37456;DHT22;23316;50.718;7.328;2023-06-24T13:34:07;28.70;41.80
37456;DHT22;23316;50.718;7.328;2023-06-24T13:36:35;28.80;41.40
37456;DHT22;23316;50.718;7.328;2023-06-24T13:39:04;28.80;41.50
37456;DHT22;23316;50.718;7.328;2023-06-24T13:41:32;28.80;41.90
37456;DHT22;23316;50.718;7.328;2023-06-24T13:44:02;28.80;41.50
37456;DHT22;23316;50.718;7.328;2023-06-24T13:46:31;28.80;41.40
37456;DHT22;23316;50.718;7.328;2023-06-24T13:48:59;28.90;41.10
37456;DHT22;23316;50.718;7.328;2023-06-24T13:51:26;28.90;40.80
37456;DHT22;23316;50.718;7.328;2023-06-24T13:53:54;28.90;41.00
37456;DHT22;23316;50.718;7.328;2023-06-24T13:56:22;28.90;41.10
37456;DHT22;23316;50.718;7.328;2023-06-24T13:58:51;28.90;40.80
37456;DHT22;23316;50.718;7.328;2023-06-24T14:01:20;28.90;40.70
37456;DHT22;23316;50.718;7.328;2023-06-24T14:03:48;28.90;39.80
37456;DHT22;23316;50.718;7.328;2023-06-24T14:06:19;28.90;39.20
37456;DHT22;23316;50.718;7.328;2023-06-24T14:08:47;29.00;39.80
37456;DHT22;23316;50.718;7.328;2023-06-24T14:11:15;28.90;39.30
37456;DHT22;23316;50.718;7.328;2023-06-24T14:13:43;28.90;38.80
37456;DHT22;23316;50.718;7.328;2023-06-24T14:16:11;28.90;39.30
37456;DHT22;23316;50.718;7.328;2023-06-24T14:18:40;29.00;39.20
37456;DHT22;23316;50.718;7.328;2023-06-24T14:21:09;29.00;40.00
37456;DHT22;23316;50.718;7.328;2023-06-24T14:23:37;29.00;39.40
37456;DHT22;23316;50.718;7.328;2023-06-24T14:26:06;29.00;38.70
37456;DHT22;23316;50.718;7.328;2023-06-24T14:28:33;29.00;38.00
37456;DHT22;23316;50.718;7.328;2023-06-24T14:31:00;29.00;38.00
37456;DHT22;23316;50.718;7.328;2023-06-24T14:33:27;29.10;38.70
37456;DHT22;23316;50.718;7.328;2023-06-24T14:35:56;29.10;38.40
37456;DHT22;23316;50.718;7.328;2023-06-24T14:38:23;29.10;38.70
37456;DHT22;23316;50.718;7.328;2023-06-24T14:40:51;29.10;38.80
37456;DHT22;23316;50.718;7.328;2023-06-24T14:43:19;29.10;39.40
37456;DHT22;23316;50.718;7.328;2023-06-24T14:45:46;29.20;39.30
37456;DHT22;23316;50.718;7.328;2023-06-24T14:48:13;29.20;38.70
37456;DHT22;23316;50.718;7.328;2023-06-24T14:50:40;29.30;38.30
37456;DHT22;23316;50.718;7.328;2023-06-24T14:53:10;29.30;38.60
37456;DHT22;23316;50.718;7.328;2023-06-24T14:55:38;29.30;38.30
37456;DHT22;23316;50.718;7.328;2023-06-24T14:58:06;29.30;38.20
37456;DHT22;23316;50.718;7.328;2023-06-24T15:00:33;29.30;38.40
37456;DHT22;23316;50.718;7.328;2023-06-24T15:03:00;29.30;39.00
37456;DHT22;23316;50.718;7.328;2023-06-24T15:05:28;29.40;38.40
37456;DHT22;23316;50.718;7.328;2023-06-24T15:07:55;29.40;38.50
37456;DHT22;23316;50.718;7.328;2023-06-24T15:10:24;29.40;38.70
37456;DHT22;23316;50.718;7.328;2023-06-24T15:12:51;29.40;38.20
37456;DHT22;23316;50.718;7.328;2023-06-24T15:15:18;29.40;37.80
37456;DHT22;23316;50.718;7.328;2023-06-24T15:17:45;29.40;37.60
37456;DHT22;23316;50.718;7.328;2023-06-24T15:20:13;29.40;37.50
37456;DHT22;23316;50.718;7.328;2023-06-24T15:22:40;29.40;38.00
37456;DHT22;23316;50.718;7.328;2023-06-24T15:25:08;29.40;37.50
37456;DHT22;23316;50.718;7.328;2023-06-24T15:27:37;29.40;38.00
37456;DHT22;23316;50.718;7.328;2023-06-24T15:30:05;29.40;38.00
37456;DHT22;23316;50.718;7.328;2023-06-24T15:32:32;29.40;38.10
37456;DHT22;23316;50.718;7.328;2023-06-24T15:35:02;29.40;38.20
37456;DHT22;23316;50.718;7.328;2023-06-24T15:37:30;29.40;38.60
37456;DHT22;23316;50.718;7.328;2023-06-24T15:39:58;29.40;37.00